createdAt,value
2017-01-13T00:00:16.283Z,989.7
2017-01-13T00:01:26.203Z,989.67
2017-01-13T00:02:36.516Z,989.63
2017-01-13T00:03:46.843Z,989.53
2017-01-13T00:04:56.776Z,989.5
2017-01-13T00:06:07.102Z,989.45
2017-01-13T00:07:17.013Z,989.42
2017-01-13T00:08:26.936Z,989.35
2017-01-13T00:09:36.859Z,989.33
2017-01-13T00:10:47.172Z,989.31
2017-01-13T00:11:57.883Z,989.25
2017-01-13T00:13:08.603Z,989.22
2017-01-13T00:14:18.527Z,989.19
2017-01-13T00:15:28.849Z,989.13
2017-01-13T00:16:39.186Z,989.11
2017-01-13T00:17:49.103Z,989.11
2017-01-13T00:18:59.038Z,989.13
2017-01-13T00:20:08.957Z,989.09
2017-01-13T00:21:19.275Z,989.05
2017-01-13T00:22:29.980Z,988.98
2017-01-13T00:23:40.696Z,988.94
2017-01-13T00:24:51.406Z,988.93
2017-01-13T00:26:01.714Z,988.89
2017-01-13T00:27:11.653Z,988.85
2017-01-13T00:28:22.376Z,988.76
2017-01-13T00:29:32.309Z,988.69
2017-01-13T00:30:43.009Z,988.73
2017-01-13T00:31:52.923Z,988.72
2017-01-13T00:33:02.856Z,988.77
2017-01-13T00:34:12.385Z,988.77
2017-01-13T00:35:23.102Z,988.72
2017-01-13T00:36:33.029Z,988.73
2017-01-13T00:37:43.748Z,988.78
2017-01-13T00:38:54.065Z,988.77
2017-01-13T00:40:03.986Z,988.8
2017-01-13T00:41:14.692Z,988.75
2017-01-13T00:42:25.403Z,988.69
2017-01-13T00:43:35.326Z,988.61
2017-01-13T00:44:46.052Z,988.56
2017-01-13T00:45:55.573Z,988.47
2017-01-13T00:47:05.495Z,988.43
2017-01-13T00:48:15.803Z,988.44
2017-01-13T00:49:26.516Z,988.47
2017-01-13T00:50:37.240Z,988.43
2017-01-13T00:51:47.585Z,988.41
2017-01-13T00:52:57.898Z,988.36
2017-01-13T00:54:08.210Z,988.28
2017-01-13T00:55:18.126Z,988.24
2017-01-13T00:56:27.657Z,988.21
2017-01-13T00:57:37.582Z,988.19
2017-01-13T00:58:47.928Z,988.14
2017-01-13T00:59:57.842Z,988.16
2017-01-13T01:01:08.149Z,988.09
2017-01-13T01:02:18.475Z,988.06
2017-01-13T01:03:28.792Z,988.05
2017-01-13T01:04:39.502Z,987.99
2017-01-13T01:05:50.200Z,987.95
2017-01-13T01:07:00.538Z,987.91
2017-01-13T01:08:10.859Z,987.87
2017-01-13T01:09:20.775Z,987.87
2017-01-13T01:10:31.089Z,987.88
2017-01-13T01:11:41.806Z,987.82
2017-01-13T01:12:52.125Z,987.82
2017-01-13T01:14:02.443Z,987.81
2017-01-13T01:15:12.357Z,987.78
2017-01-13T01:16:22.277Z,987.66
2017-01-13T01:17:32.996Z,987.54
2017-01-13T01:18:43.320Z,987.48
2017-01-13T01:19:53.634Z,987.39
2017-01-13T01:21:03.947Z,987.34
2017-01-13T01:22:13.485Z,987.3
2017-01-13T01:23:24.196Z,987.32
2017-01-13T01:24:34.520Z,987.32
2017-01-13T01:25:44.830Z,987.28
2017-01-13T01:26:55.543Z,987.27
2017-01-13T01:28:05.857Z,987.19
2017-01-13T01:29:15.774Z,987.14
2017-01-13T01:30:26.482Z,987.04
2017-01-13T01:31:36.801Z,986.99
2017-01-13T01:32:47.109Z,986.92
2017-01-13T01:33:57.822Z,986.89
2017-01-13T01:35:08.148Z,986.91
2017-01-13T01:36:18.073Z,986.87
2017-01-13T01:37:27.602Z,986.81
2017-01-13T01:38:38.357Z,986.78
2017-01-13T01:39:47.877Z,986.77
2017-01-13T01:40:58.575Z,986.74
2017-01-13T01:42:08.881Z,986.71
2017-01-13T01:43:19.188Z,986.66
2017-01-13T01:44:29.895Z,986.66
2017-01-13T01:45:39.806Z,986.64
2017-01-13T01:46:50.126Z,986.64
2017-01-13T01:48:00.052Z,986.62
2017-01-13T01:49:10.359Z,986.58
2017-01-13T01:50:21.080Z,986.48
2017-01-13T01:51:31.397Z,986.4
2017-01-13T01:52:42.104Z,986.34
2017-01-13T01:53:52.037Z,986.27
2017-01-13T01:55:01.960Z,986.24
2017-01-13T01:56:12.280Z,986.22
2017-01-13T01:57:21.797Z,986.17
2017-01-13T01:58:31.718Z,986.19
2017-01-13T01:59:42.431Z,986.08
2017-01-13T02:00:52.353Z,986.09
2017-01-13T02:02:02.670Z,986.05
2017-01-13T02:03:12.990Z,985.97
2017-01-13T02:04:23.307Z,985.88
2017-01-13T02:05:33.624Z,985.8
2017-01-13T02:06:44.334Z,985.76
2017-01-13T02:07:55.038Z,985.76
2017-01-13T02:09:04.603Z,985.62
2017-01-13T02:10:14.139Z,985.59
2017-01-13T02:11:24.485Z,985.51
2017-01-13T02:12:34.392Z,985.42
2017-01-13T02:13:44.712Z,985.42
2017-01-13T02:14:54.639Z,985.37
2017-01-13T02:16:04.571Z,985.34
2017-01-13T02:17:14.888Z,985.26
2017-01-13T02:18:24.411Z,985.22
2017-01-13T02:19:34.728Z,985.16
2017-01-13T02:20:44.654Z,985.08
2017-01-13T02:21:54.980Z,985.03
2017-01-13T02:23:05.292Z,984.98
2017-01-13T02:24:15.211Z,984.89
2017-01-13T02:25:25.536Z,984.86
2017-01-13T02:26:35.848Z,984.75
2017-01-13T02:27:46.161Z,984.73
2017-01-13T02:28:56.481Z,984.67
2017-01-13T02:30:06.013Z,984.65
2017-01-13T02:31:16.321Z,984.55
2017-01-13T02:32:26.251Z,984.54
2017-01-13T02:33:36.578Z,984.49
2017-01-13T02:34:46.533Z,984.47
2017-01-13T02:35:56.450Z,984.47
2017-01-13T02:37:06.763Z,984.43
2017-01-13T02:38:15.886Z,984.37
2017-01-13T02:39:25.832Z,984.33
2017-01-13T02:40:36.549Z,984.3
2017-01-13T02:41:47.259Z,984.27
2017-01-13T02:42:57.166Z,984.23
2017-01-13T02:44:07.479Z,984.13
2017-01-13T02:45:17.407Z,984.01
2017-01-13T02:46:28.120Z,983.96
2017-01-13T02:47:38.817Z,983.88
2017-01-13T02:48:49.528Z,983.86
2017-01-13T02:49:59.871Z,983.82
2017-01-13T02:51:10.178Z,983.77
2017-01-13T02:52:20.885Z,983.69
2017-01-13T02:53:31.208Z,983.65
2017-01-13T02:54:41.515Z,983.62
2017-01-13T02:55:51.816Z,983.58
2017-01-13T02:57:01.731Z,983.49
2017-01-13T02:58:11.656Z,983.42
2017-01-13T02:59:21.569Z,983.38
2017-01-13T03:00:31.921Z,983.34
2017-01-13T03:01:42.234Z,983.22
2017-01-13T03:02:52.545Z,983.25
2017-01-13T03:04:02.859Z,983.13
2017-01-13T03:05:13.167Z,983.05
2017-01-13T03:06:22.693Z,983.04
2017-01-13T03:07:33.245Z,983
2017-01-13T03:08:43.157Z,982.91
2017-01-13T03:09:53.076Z,982.83
2017-01-13T03:11:02.622Z,982.74
2017-01-13T03:12:12.532Z,982.71
2017-01-13T03:13:22.448Z,982.71
2017-01-13T03:14:31.969Z,982.69
2017-01-13T03:15:42.676Z,982.62
2017-01-13T03:16:53.412Z,982.64
2017-01-13T03:18:03.733Z,982.61
2017-01-13T03:19:14.037Z,982.51
2017-01-13T03:20:24.987Z,982.44
2017-01-13T03:21:34.907Z,982.5
2017-01-13T03:22:45.067Z,982.41
2017-01-13T03:23:55.800Z,982.34
2017-01-13T03:25:06.136Z,982.31
2017-01-13T03:26:16.458Z,982.23
2017-01-13T03:27:27.023Z,982.18
2017-01-13T03:28:37.736Z,982.13
2017-01-13T03:29:48.446Z,982.05
2017-01-13T03:30:58.357Z,981.97
2017-01-13T03:32:08.276Z,981.94
2017-01-13T03:33:18.613Z,981.88
2017-01-13T03:34:29.331Z,981.85
2017-01-13T03:35:38.858Z,981.8
2017-01-13T03:36:49.578Z,981.78
2017-01-13T03:38:00.277Z,981.67
2017-01-13T03:39:10.987Z,981.63
2017-01-13T03:40:21.300Z,981.55
2017-01-13T03:41:31.211Z,981.57
2017-01-13T03:42:41.135Z,981.54
2017-01-13T03:43:51.838Z,981.55
2017-01-13T03:45:02.148Z,981.49
2017-01-13T03:46:12.859Z,981.45
2017-01-13T03:47:23.575Z,981.33
2017-01-13T03:48:34.277Z,981.33
2017-01-13T03:49:44.996Z,981.29
2017-01-13T03:50:55.339Z,981.26
2017-01-13T03:52:05.646Z,981.28
2017-01-13T03:53:15.566Z,981.22
2017-01-13T03:54:25.495Z,981.13
2017-01-13T03:55:36.206Z,981.15
2017-01-13T03:56:46.523Z,981.04
2017-01-13T03:57:57.242Z,980.84
2017-01-13T03:59:07.167Z,980.91
2017-01-13T04:00:16.290Z,980.83
2017-01-13T04:01:26.996Z,980.84
2017-01-13T04:02:37.332Z,980.88
2017-01-13T04:03:48.047Z,980.99
2017-01-13T04:04:57.575Z,981.02
2017-01-13T04:06:07.499Z,981.02
2017-01-13T04:07:17.412Z,981.14
2017-01-13T04:08:28.114Z,981.05
2017-01-13T04:09:38.026Z,981.08
2017-01-13T04:10:47.940Z,980.85
2017-01-13T04:11:58.258Z,980.78
2017-01-13T04:13:08.174Z,980.82
2017-01-13T04:14:18.485Z,980.8
2017-01-13T04:15:28.792Z,980.86
2017-01-13T04:16:39.102Z,980.73
2017-01-13T04:17:49.013Z,980.65
2017-01-13T04:18:59.335Z,980.64
2017-01-13T04:20:09.659Z,980.59
2017-01-13T04:21:19.962Z,980.68
2017-01-13T04:22:29.877Z,980.66
2017-01-13T04:23:40.584Z,980.56
2017-01-13T04:24:51.323Z,980.42
2017-01-13T04:26:01.240Z,980.32
2017-01-13T04:27:11.534Z,980.41
2017-01-13T04:28:21.467Z,980.45
2017-01-13T04:29:31.387Z,980.4
2017-01-13T04:30:42.094Z,980.26
2017-01-13T04:31:52.408Z,980.25
2017-01-13T04:33:02.725Z,980.18
2017-01-13T04:34:12.642Z,980.03
2017-01-13T04:35:23.360Z,980.19
2017-01-13T04:36:33.681Z,980.23
2017-01-13T04:37:43.592Z,980.22
2017-01-13T04:38:53.509Z,980.17
2017-01-13T04:40:04.224Z,980.21
2017-01-13T04:41:14.133Z,980.23
2017-01-13T04:42:23.259Z,980.25
2017-01-13T04:43:32.389Z,980.21
2017-01-13T04:44:43.099Z,980.17
2017-01-13T04:45:52.629Z,980.15
2017-01-13T04:47:03.323Z,980.06
2017-01-13T04:48:14.027Z,980.04
2017-01-13T04:49:23.150Z,980.02
2017-01-13T04:50:33.473Z,979.99
2017-01-13T04:51:43.018Z,980.02
2017-01-13T04:52:53.358Z,979.96
2017-01-13T04:54:04.074Z,979.94
2017-01-13T04:55:14.294Z,979.94
2017-01-13T04:56:25.021Z,979.96
2017-01-13T04:57:35.736Z,979.93
2017-01-13T04:58:46.081Z,979.91
2017-01-13T04:59:56.000Z,979.87
2017-01-13T05:01:06.314Z,979.9
2017-01-13T05:02:16.639Z,979.87
2017-01-13T05:03:26.947Z,979.89
2017-01-13T05:04:36.876Z,979.9
2017-01-13T05:05:47.187Z,979.87
2017-01-13T05:06:57.506Z,979.88
2017-01-13T05:08:07.830Z,979.88
2017-01-13T05:09:18.168Z,979.83
2017-01-13T05:10:27.692Z,979.85
2017-01-13T05:11:38.405Z,979.77
2017-01-13T05:12:48.725Z,979.77
2017-01-13T05:13:58.645Z,979.81
2017-01-13T05:15:08.565Z,979.8
2017-01-13T05:16:18.482Z,979.79
2017-01-13T05:17:28.799Z,979.78
2017-01-13T05:18:39.522Z,979.76
2017-01-13T05:19:49.436Z,979.74
2017-01-13T05:20:59.761Z,979.7
2017-01-13T05:22:10.069Z,979.69
2017-01-13T05:23:20.383Z,979.68
2017-01-13T05:24:30.731Z,979.72
2017-01-13T05:25:41.441Z,979.64
2017-01-13T05:26:51.368Z,979.6
2017-01-13T05:28:00.507Z,979.64
2017-01-13T05:29:10.823Z,979.6
2017-01-13T05:30:20.740Z,979.57
2017-01-13T05:31:31.064Z,979.52
2017-01-13T05:32:41.774Z,979.49
2017-01-13T05:33:52.088Z,979.51
2017-01-13T05:35:02.032Z,979.42
2017-01-13T05:36:11.957Z,979.41
2017-01-13T05:37:21.873Z,979.42
2017-01-13T05:38:32.200Z,979.32
2017-01-13T05:39:42.928Z,979.31
2017-01-13T05:40:52.877Z,979.3
2017-01-13T05:42:03.600Z,979.22
2017-01-13T05:43:13.531Z,979.27
2017-01-13T05:44:23.840Z,979.27
2017-01-13T05:45:33.773Z,979.25
2017-01-13T05:46:45.094Z,979.24
2017-01-13T05:47:55.802Z,979.21
2017-01-13T05:49:06.109Z,979.16
2017-01-13T05:50:16.029Z,979.1
2017-01-13T05:51:26.754Z,979.06
2017-01-13T05:52:37.066Z,979.07
2017-01-13T05:53:47.022Z,979.02
2017-01-13T05:54:57.341Z,979.02
2017-01-13T05:56:08.049Z,978.94
2017-01-13T05:57:18.763Z,978.93
2017-01-13T05:58:29.078Z,978.9
2017-01-13T05:59:38.602Z,978.84
2017-01-13T06:00:48.935Z,978.82
2017-01-13T06:01:58.464Z,978.86
2017-01-13T06:03:09.162Z,978.91
2017-01-13T06:04:19.876Z,978.9
2017-01-13T06:05:30.195Z,978.85
2017-01-13T06:06:40.532Z,978.79
2017-01-13T06:07:50.451Z,978.72
2017-01-13T06:09:01.162Z,978.76
2017-01-13T06:10:11.470Z,978.81
2017-01-13T06:11:21.815Z,978.82
2017-01-13T06:12:31.748Z,978.75
2017-01-13T06:13:42.071Z,978.74
2017-01-13T06:14:51.984Z,978.75
2017-01-13T06:16:02.295Z,978.73
2017-01-13T06:17:12.221Z,978.69
2017-01-13T06:18:22.560Z,978.66
2017-01-13T06:19:33.277Z,978.66
2017-01-13T06:20:43.591Z,978.6
2017-01-13T06:21:53.114Z,978.57
2017-01-13T06:23:03.038Z,978.59
2017-01-13T06:24:12.167Z,978.57
2017-01-13T06:25:22.483Z,978.6
2017-01-13T06:26:32.797Z,978.62
2017-01-13T06:27:43.108Z,978.59
2017-01-13T06:28:53.823Z,978.53
2017-01-13T06:30:04.550Z,978.56
2017-01-13T06:31:15.680Z,978.5
2017-01-13T06:32:25.596Z,978.49
2017-01-13T06:33:35.922Z,978.44
2017-01-13T06:34:46.630Z,978.44
2017-01-13T06:35:56.978Z,978.39
2017-01-13T06:37:07.692Z,978.41
2017-01-13T06:38:17.212Z,978.41
2017-01-13T06:39:27.547Z,978.42
2017-01-13T06:40:38.268Z,978.42
2017-01-13T06:41:48.620Z,978.41
2017-01-13T06:42:58.944Z,978.36
2017-01-13T06:44:09.275Z,978.39
2017-01-13T06:45:19.990Z,978.36
2017-01-13T06:46:30.325Z,978.34
2017-01-13T06:47:41.036Z,978.4
2017-01-13T06:48:51.743Z,978.41
2017-01-13T06:50:01.705Z,978.42
2017-01-13T06:51:12.016Z,978.44
2017-01-13T06:52:21.944Z,978.45
2017-01-13T06:53:32.291Z,978.43
2017-01-13T06:54:42.221Z,978.4
2017-01-13T06:55:52.940Z,978.41
2017-01-13T06:57:03.653Z,978.46
2017-01-13T06:58:13.989Z,978.5
2017-01-13T06:59:24.694Z,978.54
2017-01-13T07:00:35.001Z,978.56
2017-01-13T07:01:45.728Z,978.53
2017-01-13T07:02:54.862Z,978.51
2017-01-13T07:04:05.580Z,978.48
2017-01-13T07:05:15.497Z,978.53
2017-01-13T07:06:25.427Z,978.5
2017-01-13T07:07:35.378Z,978.55
2017-01-13T07:08:46.101Z,978.44
2017-01-13T07:09:56.432Z,978.46
2017-01-13T07:11:05.965Z,978.51
2017-01-13T07:12:16.300Z,978.53
2017-01-13T07:13:27.052Z,978.53
2017-01-13T07:14:36.979Z,978.52
2017-01-13T07:15:47.743Z,978.5
2017-01-13T07:16:58.061Z,978.52
2017-01-13T07:18:08.812Z,978.46
2017-01-13T07:19:19.181Z,978.49
2017-01-13T07:20:29.504Z,978.52
2017-01-13T07:21:39.455Z,978.52
2017-01-13T07:22:49.789Z,978.52
2017-01-13T07:24:00.509Z,978.5
2017-01-13T07:25:10.463Z,978.49
2017-01-13T07:26:20.791Z,978.5
2017-01-13T07:27:31.136Z,978.47
2017-01-13T07:28:41.463Z,978.46
2017-01-13T07:29:51.780Z,978.5
2017-01-13T07:31:02.518Z,978.52
2017-01-13T07:32:13.236Z,978.46
2017-01-13T07:33:23.590Z,978.52
2017-01-13T07:34:33.907Z,978.53
2017-01-13T07:35:44.238Z,978.53
2017-01-13T07:36:53.783Z,978.51
2017-01-13T07:38:04.093Z,978.51
2017-01-13T07:39:14.426Z,978.51
2017-01-13T07:40:25.162Z,978.53
2017-01-13T07:41:35.086Z,978.55
2017-01-13T07:42:45.016Z,978.6
2017-01-13T07:43:55.332Z,978.63
2017-01-13T07:45:06.065Z,978.65
2017-01-13T07:46:16.798Z,978.67
2017-01-13T07:47:27.576Z,978.65
2017-01-13T07:48:37.512Z,978.67
2017-01-13T07:49:48.241Z,978.69
2017-01-13T07:50:58.180Z,978.72
2017-01-13T07:52:08.538Z,978.73
2017-01-13T07:53:19.268Z,978.75
2017-01-13T07:54:29.230Z,978.7
2017-01-13T07:55:39.582Z,978.73
2017-01-13T07:56:49.916Z,978.69
2017-01-13T07:58:00.234Z,978.73
2017-01-13T07:59:10.949Z,978.72
2017-01-13T08:00:21.682Z,978.75
2017-01-13T08:01:32.021Z,978.77
2017-01-13T08:02:42.401Z,978.78
2017-01-13T08:03:53.134Z,978.83
2017-01-13T08:05:03.881Z,978.85
2017-01-13T08:06:14.234Z,978.89
2017-01-13T08:07:24.169Z,978.91
2017-01-13T08:08:34.889Z,978.92
2017-01-13T08:09:44.821Z,978.98
2017-01-13T08:10:55.568Z,978.97
2017-01-13T08:12:05.507Z,978.94
2017-01-13T08:13:15.850Z,978.97
2017-01-13T08:14:25.744Z,978.97
2017-01-13T08:15:35.667Z,978.98
2017-01-13T08:16:46.427Z,978.95
2017-01-13T08:17:56.364Z,979
2017-01-13T08:19:07.095Z,979
2017-01-13T08:20:17.428Z,979.02
2017-01-13T08:21:27.378Z,979.02
2017-01-13T08:22:37.329Z,979.01
2017-01-13T08:23:47.671Z,979.06
2017-01-13T08:24:58.013Z,979.09
2017-01-13T08:26:08.340Z,979.09
2017-01-13T08:27:18.701Z,979.12
2017-01-13T08:28:29.470Z,979.16
2017-01-13T08:29:39.396Z,979.17
2017-01-13T08:30:50.148Z,979.18
2017-01-13T08:32:00.887Z,979.2
2017-01-13T08:33:10.420Z,979.14
2017-01-13T08:34:21.208Z,979.21
2017-01-13T08:35:31.138Z,979.22
2017-01-13T08:36:41.486Z,979.19
2017-01-13T08:37:51.431Z,979.25
2017-01-13T08:39:01.384Z,979.26
2017-01-13T08:40:12.132Z,979.24
2017-01-13T08:41:22.066Z,979.25
2017-01-13T08:42:32.424Z,979.26
2017-01-13T08:43:43.168Z,979.3
2017-01-13T08:44:53.928Z,979.29
2017-01-13T08:46:04.712Z,979.34
2017-01-13T08:47:15.031Z,979.3
2017-01-13T08:48:24.967Z,979.36
2017-01-13T08:49:35.288Z,979.4
2017-01-13T08:50:46.024Z,979.36
2017-01-13T08:51:55.963Z,979.38
2017-01-13T08:53:06.325Z,979.37
2017-01-13T08:54:16.264Z,979.41
2017-01-13T08:55:26.596Z,979.44
2017-01-13T08:56:37.352Z,979.46
2017-01-13T08:57:47.268Z,979.49
2017-01-13T08:58:57.208Z,979.48
2017-01-13T09:00:07.950Z,979.49
2017-01-13T09:01:18.312Z,979.52
2017-01-13T09:02:29.029Z,979.52
2017-01-13T09:03:38.970Z,979.53
2017-01-13T09:04:49.320Z,979.54
2017-01-13T09:06:00.088Z,979.51
2017-01-13T09:07:10.415Z,979.52
2017-01-13T09:08:20.754Z,979.52
2017-01-13T09:09:30.705Z,979.52
2017-01-13T09:10:41.026Z,979.54
2017-01-13T09:11:51.368Z,979.51
2017-01-13T09:13:01.704Z,979.56
2017-01-13T09:14:11.253Z,979.59
2017-01-13T09:15:21.186Z,979.56
2017-01-13T09:16:31.097Z,979.59
2017-01-13T09:17:41.825Z,979.7
2017-01-13T09:18:52.549Z,979.65
2017-01-13T09:20:02.101Z,979.66
2017-01-13T09:21:12.853Z,979.72
2017-01-13T09:22:23.423Z,979.64
2017-01-13T09:23:33.784Z,979.65
2017-01-13T09:24:43.720Z,979.73
2017-01-13T09:25:53.669Z,979.66
2017-01-13T09:27:03.986Z,979.69
2017-01-13T09:28:13.541Z,979.72
2017-01-13T09:29:23.487Z,979.65
2017-01-13T09:30:33.029Z,979.69
2017-01-13T09:31:43.375Z,979.72
2017-01-13T09:32:53.311Z,979.74
2017-01-13T09:34:04.055Z,979.76
2017-01-13T09:35:13.989Z,979.77
2017-01-13T09:36:24.325Z,979.79
2017-01-13T09:37:35.054Z,979.82
2017-01-13T09:38:45.779Z,979.91
2017-01-13T09:39:55.711Z,979.9
2017-01-13T09:41:06.059Z,979.91
2017-01-13T09:42:16.386Z,979.97
2017-01-13T09:43:26.700Z,979.94
2017-01-13T09:44:37.019Z,979.97
2017-01-13T09:45:47.772Z,979.94
2017-01-13T09:46:57.717Z,980.02
2017-01-13T09:48:08.476Z,979.98
2017-01-13T09:49:18.440Z,979.95
2017-01-13T09:50:28.385Z,979.96
2017-01-13T09:51:38.716Z,980.01
2017-01-13T09:52:49.442Z,979.96
2017-01-13T09:53:59.388Z,980.1
2017-01-13T09:55:09.724Z,980.07
2017-01-13T09:56:20.476Z,980.13
2017-01-13T09:57:30.824Z,980.16
2017-01-13T09:58:41.570Z,980.14
2017-01-13T09:59:51.913Z,980.18
2017-01-13T10:01:02.277Z,980.14
2017-01-13T10:02:12.232Z,980.19
2017-01-13T10:03:22.588Z,980.23
2017-01-13T10:04:32.924Z,980.2
2017-01-13T10:05:43.638Z,980.26
2017-01-13T10:06:53.192Z,980.24
2017-01-13T10:08:03.128Z,980.27
2017-01-13T10:09:13.455Z,980.3
2017-01-13T10:10:23.424Z,980.28
2017-01-13T10:11:33.760Z,980.36
2017-01-13T10:12:44.488Z,980.36
2017-01-13T10:13:55.218Z,980.38
2017-01-13T10:15:05.154Z,980.41
2017-01-13T10:16:15.496Z,980.43
2017-01-13T10:17:26.268Z,980.47
2017-01-13T10:18:36.621Z,980.5
2017-01-13T10:19:47.347Z,980.55
2017-01-13T10:20:57.710Z,980.56
2017-01-13T10:22:08.040Z,980.57
2017-01-13T10:23:18.368Z,980.57
2017-01-13T10:24:28.698Z,980.63
2017-01-13T10:25:39.028Z,980.58
2017-01-13T10:26:49.382Z,980.6
2017-01-13T10:28:00.103Z,980.64
2017-01-13T10:29:10.040Z,980.61
2017-01-13T10:30:20.364Z,980.71
2017-01-13T10:31:30.704Z,980.68
2017-01-13T10:32:41.026Z,980.65
2017-01-13T10:33:51.362Z,980.73
2017-01-13T10:35:01.707Z,980.72
2017-01-13T10:36:12.031Z,980.74
2017-01-13T10:37:21.951Z,980.74
2017-01-13T10:38:31.484Z,980.78
2017-01-13T10:39:41.828Z,980.75
2017-01-13T10:40:51.759Z,980.81
2017-01-13T10:42:01.684Z,980.82
2017-01-13T10:43:11.611Z,980.81
2017-01-13T10:44:21.935Z,980.8
2017-01-13T10:45:32.268Z,980.84
2017-01-13T10:46:42.994Z,980.86
2017-01-13T10:47:53.705Z,980.9
2017-01-13T10:49:04.051Z,980.9
2017-01-13T10:50:14.385Z,980.87
2017-01-13T10:51:24.709Z,980.92
2017-01-13T10:52:35.036Z,980.93
2017-01-13T10:53:44.971Z,980.91
2017-01-13T10:54:55.688Z,980.95
2017-01-13T10:56:05.215Z,980.95
2017-01-13T10:57:15.538Z,980.95
2017-01-13T10:58:25.863Z,980.97
2017-01-13T10:59:36.612Z,980.97
2017-01-13T11:00:46.549Z,981.03
2017-01-13T11:01:56.901Z,981.04
2017-01-13T11:03:07.218Z,981.03
2017-01-13T11:04:17.531Z,981.1
2017-01-13T11:05:27.864Z,981.14
2017-01-13T11:06:37.806Z,981.16
2017-01-13T11:07:48.537Z,981.19
2017-01-13T11:08:58.531Z,981.23
2017-01-13T11:10:08.468Z,981.2
2017-01-13T11:11:18.404Z,981.2
2017-01-13T11:12:29.138Z,981.27
2017-01-13T11:13:39.861Z,981.25
2017-01-13T11:14:49.789Z,981.31
2017-01-13T11:16:00.129Z,981.34
2017-01-13T11:17:11.086Z,981.39
2017-01-13T11:18:21.421Z,981.34
2017-01-13T11:19:31.784Z,981.44
2017-01-13T11:20:41.716Z,981.46
2017-01-13T11:21:51.251Z,981.48
2017-01-13T11:23:01.596Z,981.49
2017-01-13T11:24:11.128Z,981.48
2017-01-13T11:25:21.448Z,981.5
2017-01-13T11:26:32.159Z,981.54
2017-01-13T11:27:42.492Z,981.58
2017-01-13T11:28:52.437Z,981.57
2017-01-13T11:30:02.770Z,981.6
2017-01-13T11:31:12.725Z,981.57
2017-01-13T11:32:23.522Z,981.65
2017-01-13T11:33:33.861Z,981.7
2017-01-13T11:34:44.226Z,981.64
2017-01-13T11:35:54.172Z,981.75
2017-01-13T11:37:04.128Z,981.75
2017-01-13T11:38:14.443Z,981.79
2017-01-13T11:39:24.786Z,981.79
2017-01-13T11:40:34.325Z,981.8
2017-01-13T11:41:43.852Z,981.81
2017-01-13T11:42:54.179Z,981.81
2017-01-13T11:44:04.903Z,981.92
2017-01-13T11:45:15.633Z,981.92
2017-01-13T11:46:24.779Z,981.96
2017-01-13T11:47:35.102Z,981.99
2017-01-13T11:48:45.036Z,982.04
2017-01-13T11:49:54.991Z,982.08
2017-01-13T11:51:04.916Z,982.12
2017-01-13T11:52:15.291Z,982.08
2017-01-13T11:53:25.621Z,982.15
2017-01-13T11:54:36.351Z,982.25
2017-01-13T11:55:47.061Z,982.21
2017-01-13T11:56:57.864Z,982.28
2017-01-13T11:58:08.600Z,982.3
2017-01-13T11:59:19.371Z,982.34
2017-01-13T12:00:29.710Z,982.43
2017-01-13T12:01:40.437Z,982.43
2017-01-13T12:02:50.763Z,982.51
2017-01-13T12:04:01.091Z,982.49
2017-01-13T12:05:11.817Z,982.5
2017-01-13T12:06:21.746Z,982.57
2017-01-13T12:07:32.523Z,982.55
2017-01-13T12:08:43.281Z,982.6
2017-01-13T12:09:53.864Z,982.6
2017-01-13T12:11:04.626Z,982.59
2017-01-13T12:12:15.391Z,982.61
2017-01-13T12:13:24.957Z,982.64
2017-01-13T12:14:35.695Z,982.63
2017-01-13T12:15:46.058Z,982.72
2017-01-13T12:16:56.037Z,982.78
2017-01-13T12:18:07.009Z,982.74
2017-01-13T12:19:17.372Z,982.83
2017-01-13T12:20:27.716Z,982.82
2017-01-13T12:21:38.045Z,982.92
2017-01-13T12:22:49.044Z,982.97
2017-01-13T12:23:59.804Z,982.91
2017-01-13T12:25:10.557Z,982.94
2017-01-13T12:26:20.931Z,982.97
2017-01-13T12:27:31.677Z,982.96
2017-01-13T12:28:41.721Z,982.98
2017-01-13T12:29:52.103Z,983.04
2017-01-13T12:31:02.857Z,983.07
2017-01-13T12:32:12.448Z,983.13
2017-01-13T12:33:23.216Z,983.2
2017-01-13T12:34:33.983Z,983.22
2017-01-13T12:35:44.723Z,983.28
2017-01-13T12:36:55.517Z,983.32
2017-01-13T12:38:05.465Z,983.41
2017-01-13T12:39:16.218Z,983.41
2017-01-13T12:40:26.566Z,983.52
2017-01-13T12:41:36.585Z,983.61
2017-01-13T12:42:46.944Z,983.59
2017-01-13T12:43:57.291Z,983.66
2017-01-13T12:45:07.667Z,983.72
2017-01-13T12:46:18.434Z,983.73
2017-01-13T12:47:29.184Z,983.74
2017-01-13T12:48:39.520Z,983.77
2017-01-13T12:49:49.456Z,983.86
2017-01-13T12:51:00.198Z,983.86
2017-01-13T12:52:10.547Z,983.9
2017-01-13T12:53:20.502Z,983.99
2017-01-13T12:54:30.429Z,984.03
2017-01-13T12:55:40.856Z,984.1
2017-01-13T12:56:51.594Z,984.18
2017-01-13T12:58:02.323Z,984.23
2017-01-13T12:59:12.278Z,984.29
2017-01-13T13:00:23.014Z,984.28
2017-01-13T13:01:32.973Z,984.36
2017-01-13T13:02:43.316Z,984.37
2017-01-13T13:03:54.055Z,984.35
2017-01-13T13:05:04.406Z,984.48
2017-01-13T13:06:14.752Z,984.49
2017-01-13T13:07:25.094Z,984.52
2017-01-13T13:08:35.436Z,984.62
2017-01-13T13:09:46.402Z,984.65
2017-01-13T13:10:57.133Z,984.68
2017-01-13T13:12:07.482Z,984.74
2017-01-13T13:13:17.843Z,984.76
2017-01-13T13:14:28.591Z,984.84
2017-01-13T13:15:39.331Z,984.89
2017-01-13T13:16:49.651Z,984.89
2017-01-13T13:18:00.377Z,985.02
2017-01-13T13:19:11.111Z,985.06
2017-01-13T13:20:20.640Z,985.08
2017-01-13T13:21:30.976Z,985.11
2017-01-13T13:22:41.712Z,985.17
2017-01-13T13:23:52.029Z,985.25
2017-01-13T13:25:02.381Z,985.28
2017-01-13T13:26:12.308Z,985.29
2017-01-13T13:27:22.634Z,985.32
2017-01-13T13:28:32.564Z,985.34
2017-01-13T13:29:42.909Z,985.4
2017-01-13T13:30:53.667Z,985.5
2017-01-13T13:32:04.394Z,985.52
2017-01-13T13:33:14.390Z,985.57
2017-01-13T13:34:24.756Z,985.56
2017-01-13T13:35:35.222Z,985.6
2017-01-13T13:36:45.706Z,985.67
2017-01-13T13:37:57.190Z,985.68
2017-01-13T13:39:07.949Z,985.76
2017-01-13T13:40:17.879Z,985.81
2017-01-13T13:41:27.866Z,985.85
2017-01-13T13:42:38.223Z,985.88
2017-01-13T13:43:48.578Z,985.91
2017-01-13T13:44:58.915Z,985.97
2017-01-13T13:46:08.863Z,986.01
2017-01-13T13:47:19.219Z,986.07
2017-01-13T13:48:29.958Z,986.13
2017-01-13T13:49:39.910Z,986.17
2017-01-13T13:50:50.252Z,986.19
2017-01-13T13:52:01.029Z,986.25
2017-01-13T13:53:11.372Z,986.21
2017-01-13T13:54:21.701Z,986.31
2017-01-13T13:55:31.245Z,986.37
2017-01-13T13:56:41.557Z,986.43
2017-01-13T13:57:51.474Z,986.45
2017-01-13T13:59:01.420Z,986.48
2017-01-13T14:00:12.168Z,986.56
2017-01-13T14:01:22.891Z,986.56
2017-01-13T14:02:33.611Z,986.78
2017-01-13T14:03:44.337Z,986.77
2017-01-13T14:04:55.048Z,986.81
2017-01-13T14:06:05.400Z,986.81
2017-01-13T14:07:15.727Z,986.92
2017-01-13T14:08:25.664Z,986.96
2017-01-13T14:09:36.000Z,987.02
2017-01-13T14:10:46.721Z,987.13
2017-01-13T14:11:57.441Z,987.16
2017-01-13T14:13:08.174Z,987.24
2017-01-13T14:14:18.910Z,987.27
2017-01-13T14:15:29.627Z,987.3
2017-01-13T14:16:39.168Z,987.39
2017-01-13T14:17:49.123Z,987.37
2017-01-13T14:18:59.847Z,987.49
2017-01-13T14:20:09.797Z,987.51
2017-01-13T14:21:19.348Z,987.54
2017-01-13T14:22:29.682Z,987.61
2017-01-13T14:23:40.007Z,987.74
2017-01-13T14:24:50.330Z,987.73
2017-01-13T14:26:01.064Z,987.78
2017-01-13T14:27:11.830Z,987.8
2017-01-13T14:28:22.570Z,987.87
2017-01-13T14:29:32.904Z,987.93
2017-01-13T14:30:42.430Z,988.14
2017-01-13T14:31:52.755Z,988.09
2017-01-13T14:33:03.074Z,988.19
2017-01-13T14:34:13.835Z,988.23
2017-01-13T14:35:24.559Z,988.34
2017-01-13T14:36:35.276Z,988.34
2017-01-13T14:37:45.705Z,988.32
2017-01-13T14:38:56.447Z,988.4